DLH4JW EDDM-EDDH
Flight info
| Callsign | DLH4JW |
|---|---|
| Flight time | 1h 4m |
| Altitude | 36000 |
| Route | INPUD3Q INPUD Y102 UPALA M726 NARUS DCT ABGUS DCT DIRBO/N0355F230 T902 RARUP RARUP3P |
| Aircraft | A320/M-SDE3FGHIRWY/LB1 |
Departure
| Time | 2026-05-04 14:03 |
|---|---|
| Airport | Munich Airport (EDDM) |
Arrival
| Time | 2026-05-04 15:07 |
|---|---|
| Airport | Hamburg Helmut Schmidt Airport (EDDH) |
| Time | Latitude | Longitude | Altitude | Speed | Heading |
|---|---|---|---|---|---|
| 2026-05-04 13:36 | 48.35740 | 11.79263 | 1473 ft | 0 kts | 263° |
| 2026-05-04 13:56 | 48.35740 | 11.79266 | 1485 ft | 2 kts | 263° |
| 2026-05-04 13:56 | 48.35745 | 11.79338 | 1473 ft | 2 kts | 263° |
| 2026-05-04 13:57 | 48.35745 | 11.79376 | 1474 ft | 4 kts | 292° |
| 2026-05-04 13:57 | 48.35730 | 11.79404 | 1496 ft | 4 kts | 341° |
| 2026-05-04 13:58 | 48.35703 | 11.79411 | 1477 ft | 0 kts | 353° |
| 2026-05-04 13:59 | 48.35717 | 11.79408 | 1458 ft | 6 kts | 353° |
| 2026-05-04 14:00 | 48.35784 | 11.79397 | 1476 ft | 14 kts | 353° |
| 2026-05-04 14:00 | 48.36054 | 11.79321 | 1478 ft | 23 kts | 345° |
| 2026-05-04 14:00 | 48.36078 | 11.79121 | 1475 ft | 22 kts | 263° |
| 2026-05-04 14:01 | 48.36059 | 11.78882 | 1483 ft | 24 kts | 263° |
| 2026-05-04 14:01 | 48.36039 | 11.78622 | 1485 ft | 26 kts | 263° |
| 2026-05-04 14:01 | 48.36230 | 11.78555 | 1476 ft | 22 kts | 48° |
| 2026-05-04 14:02 | 48.36321 | 11.78748 | 1478 ft | 23 kts | 54° |
| 2026-05-04 14:02 | 48.36419 | 11.78947 | 1478 ft | 24 kts | 53° |
| 2026-05-04 14:02 | 48.36459 | 11.79158 | 1485 ft | 17 kts | 83° |
| 2026-05-04 14:02 | 48.36479 | 11.79400 | 1485 ft | 46 kts | 83° |
| 2026-05-04 14:03 | 48.36547 | 11.80272 | 1486 ft | 119 kts | 83° |
| 2026-05-04 14:03 | 48.36667 | 11.81764 | 1670 ft | 159 kts | 83° |
| 2026-05-04 14:03 | 48.36803 | 11.83433 | 2341 ft | 162 kts | 83° |
| 2026-05-04 14:03 | 48.36952 | 11.85139 | 3072 ft | 171 kts | 75° |
| 2026-05-04 14:04 | 48.39019 | 11.87108 | 3825 ft | 217 kts | 359° |
| 2026-05-04 14:04 | 48.40613 | 11.86923 | 4211 ft | 243 kts | 352° |
| 2026-05-04 14:04 | 48.42219 | 11.85839 | 4800 ft | 268 kts | 320° |
| 2026-05-04 14:05 | 48.44713 | 11.81469 | 6714 ft | 280 kts | 308° |
| 2026-05-04 14:05 | 48.45982 | 11.79213 | 7679 ft | 284 kts | 308° |
| 2026-05-04 14:05 | 48.47254 | 11.76965 | 8637 ft | 287 kts | 308° |
| 2026-05-04 14:06 | 48.48564 | 11.74663 | 9625 ft | 291 kts | 308° |
| 2026-05-04 14:06 | 48.49887 | 11.72336 | 10528 ft | 295 kts | 307° |
| 2026-05-04 14:06 | 48.51232 | 11.69969 | 11403 ft | 299 kts | 307° |
| 2026-05-04 14:06 | 48.52593 | 11.67566 | 12268 ft | 304 kts | 307° |
| 2026-05-04 14:07 | 48.53976 | 11.65125 | 13115 ft | 308 kts | 307° |
| 2026-05-04 14:07 | 48.55380 | 11.62647 | 13914 ft | 313 kts | 307° |
| 2026-05-04 14:07 | 48.56981 | 11.60361 | 14649 ft | 322 kts | 320° |
| 2026-05-04 14:07 | 48.58953 | 11.58586 | 15088 ft | 343 kts | 333° |
| 2026-05-04 14:08 | 48.61247 | 11.57232 | 15388 ft | 362 kts | 336° |
| 2026-05-04 14:08 | 48.63631 | 11.55872 | 16065 ft | 369 kts | 336° |
| 2026-05-04 14:08 | 48.66057 | 11.54492 | 16852 ft | 374 kts | 336° |
| 2026-05-04 14:08 | 48.68497 | 11.53097 | 17644 ft | 378 kts | 336° |
| 2026-05-04 14:09 | 48.73452 | 11.50243 | 18984 ft | 384 kts | 336° |
| 2026-05-04 14:09 | 48.75956 | 11.48793 | 19631 ft | 386 kts | 336° |
| 2026-05-04 14:10 | 48.81019 | 11.45854 | 20886 ft | 392 kts | 336° |
| 2026-05-04 14:10 | 48.83572 | 11.44369 | 21506 ft | 394 kts | 336° |
| 2026-05-04 14:10 | 48.86146 | 11.42870 | 22104 ft | 398 kts | 335° |
| 2026-05-04 14:10 | 48.88744 | 11.41357 | 22679 ft | 401 kts | 335° |
| 2026-05-04 14:11 | 48.91325 | 11.39853 | 23260 ft | 404 kts | 335° |
| 2026-05-04 14:11 | 48.96606 | 11.36767 | 24271 ft | 409 kts | 335° |
| 2026-05-04 14:11 | 48.99273 | 11.35205 | 24745 ft | 412 kts | 335° |
| 2026-05-04 14:12 | 49.01959 | 11.33630 | 25195 ft | 415 kts | 335° |
| 2026-05-04 14:12 | 49.04658 | 11.32043 | 25672 ft | 417 kts | 335° |
| 2026-05-04 14:12 | 49.10101 | 11.28829 | 26580 ft | 422 kts | 335° |
| 2026-05-04 14:13 | 49.12847 | 11.27206 | 27035 ft | 424 kts | 335° |
| 2026-05-04 14:13 | 49.15609 | 11.25575 | 27475 ft | 427 kts | 335° |
| 2026-05-04 14:13 | 49.18390 | 11.23939 | 27920 ft | 430 kts | 336° |
| 2026-05-04 14:13 | 49.21287 | 11.22689 | 28330 ft | 437 kts | 346° |
| 2026-05-04 14:14 | 49.24335 | 11.22167 | 28715 ft | 444 kts | 356° |
| 2026-05-04 14:14 | 49.30554 | 11.22232 | 29516 ft | 450 kts | 357° |
| 2026-05-04 14:14 | 49.33693 | 11.22264 | 29920 ft | 452 kts | 357° |
| 2026-05-04 14:15 | 49.40023 | 11.22306 | 30620 ft | 457 kts | 357° |
| 2026-05-04 14:15 | 49.45326 | 11.22336 | 31178 ft | 460 kts | 357° |
| 2026-05-04 14:16 | 49.51760 | 11.22385 | 31845 ft | 463 kts | 356° |
| 2026-05-04 14:16 | 49.54974 | 11.22413 | 32327 ft | 461 kts | 356° |
| 2026-05-04 14:17 | 49.61351 | 11.22450 | 33291 ft | 456 kts | 356° |
| 2026-05-04 14:17 | 49.64518 | 11.22454 | 33800 ft | 454 kts | 356° |
| 2026-05-04 14:17 | 49.70809 | 11.22452 | 34641 ft | 451 kts | 356° |
| 2026-05-04 14:18 | 49.73942 | 11.22449 | 34978 ft | 450 kts | 356° |
| 2026-05-04 14:18 | 49.80201 | 11.22463 | 35633 ft | 449 kts | 356° |
| 2026-05-04 14:19 | 49.86451 | 11.22504 | 35982 ft | 446 kts | 356° |
| 2026-05-04 14:19 | 49.92621 | 11.22559 | 35985 ft | 442 kts | 356° |
| 2026-05-04 14:20 | 49.98766 | 11.22596 | 35990 ft | 441 kts | 356° |
| 2026-05-04 14:20 | 50.04914 | 11.22629 | 35991 ft | 441 kts | 356° |
| 2026-05-04 14:21 | 50.14081 | 11.22679 | 36000 ft | 442 kts | 356° |
| 2026-05-04 14:21 | 50.20235 | 11.22709 | 35997 ft | 442 kts | 356° |
| 2026-05-04 14:22 | 50.26379 | 11.22741 | 35988 ft | 441 kts | 356° |
| 2026-05-04 14:22 | 50.32523 | 11.22782 | 35986 ft | 441 kts | 356° |
| 2026-05-04 14:23 | 50.41668 | 11.21973 | 35991 ft | 438 kts | 350° |
| 2026-05-04 14:24 | 50.47738 | 11.21051 | 35981 ft | 438 kts | 350° |
| 2026-05-04 14:24 | 50.53802 | 11.20134 | 35998 ft | 438 kts | 350° |
| 2026-05-04 14:25 | 50.59827 | 11.19223 | 35986 ft | 438 kts | 350° |
| 2026-05-04 14:25 | 50.68938 | 11.17856 | 35976 ft | 439 kts | 351° |
| 2026-05-04 14:26 | 50.75037 | 11.17188 | 35982 ft | 440 kts | 352° |
| 2026-05-04 14:26 | 50.81148 | 11.16635 | 35994 ft | 440 kts | 352° |
| 2026-05-04 14:27 | 50.87254 | 11.16035 | 35993 ft | 439 kts | 352° |
| 2026-05-04 14:27 | 50.93353 | 11.15387 | 35971 ft | 439 kts | 351° |
| 2026-05-04 14:28 | 50.99417 | 11.14734 | 35968 ft | 439 kts | 351° |
| 2026-05-04 14:28 | 51.05514 | 11.14088 | 35978 ft | 439 kts | 351° |
| 2026-05-04 14:29 | 51.17720 | 11.12802 | 35971 ft | 439 kts | 351° |
| 2026-05-04 14:30 | 51.23819 | 11.12143 | 35968 ft | 439 kts | 351° |
| 2026-05-04 14:31 | 51.32973 | 11.11175 | 35976 ft | 440 kts | 351° |
| 2026-05-04 14:32 | 51.45180 | 11.09864 | 35966 ft | 440 kts | 351° |
| 2026-05-04 14:32 | 51.51292 | 11.09202 | 35958 ft | 441 kts | 351° |
| 2026-05-04 14:33 | 51.57416 | 11.08537 | 35981 ft | 440 kts | 351° |
| 2026-05-04 14:33 | 51.63494 | 11.07886 | 35978 ft | 440 kts | 351° |
| 2026-05-04 14:34 | 51.69606 | 11.07225 | 35971 ft | 440 kts | 351° |
| 2026-05-04 14:34 | 51.75715 | 11.06559 | 35969 ft | 440 kts | 351° |
| 2026-05-04 14:35 | 51.81820 | 11.05882 | 35987 ft | 439 kts | 350° |
| 2026-05-04 14:35 | 51.87913 | 11.05178 | 35974 ft | 438 kts | 349° |
| 2026-05-04 14:36 | 51.93955 | 11.04022 | 35974 ft | 436 kts | 346° |
| 2026-05-04 14:36 | 51.99950 | 11.02594 | 35972 ft | 435 kts | 346° |
| 2026-05-04 14:37 | 52.05950 | 11.01217 | 35983 ft | 436 kts | 346° |
| 2026-05-04 14:37 | 52.11968 | 10.99930 | 35982 ft | 436 kts | 346° |
| 2026-05-04 14:38 | 52.17939 | 10.98676 | 35977 ft | 435 kts | 346° |
| 2026-05-04 14:38 | 52.23942 | 10.97385 | 35974 ft | 435 kts | 346° |
| 2026-05-04 14:39 | 52.29948 | 10.96080 | 35986 ft | 435 kts | 346° |
| 2026-05-04 14:39 | 52.32964 | 10.95422 | 35451 ft | 441 kts | 346° |
| 2026-05-04 14:39 | 52.36047 | 10.94744 | 34497 ft | 449 kts | 345° |
| 2026-05-04 14:40 | 52.42142 | 10.93439 | 33581 ft | 437 kts | 345° |
| 2026-05-04 14:40 | 52.45144 | 10.92799 | 33040 ft | 433 kts | 345° |
| 2026-05-04 14:40 | 52.48110 | 10.92162 | 32503 ft | 429 kts | 345° |
| 2026-05-04 14:40 | 52.51064 | 10.91521 | 31990 ft | 425 kts | 345° |
| 2026-05-04 14:41 | 52.53991 | 10.90878 | 31436 ft | 423 kts | 345° |
| 2026-05-04 14:41 | 52.56896 | 10.90235 | 30919 ft | 420 kts | 345° |
| 2026-05-04 14:41 | 52.62645 | 10.88966 | 29895 ft | 414 kts | 345° |
| 2026-05-04 14:42 | 52.68290 | 10.87722 | 28907 ft | 404 kts | 345° |
| 2026-05-04 14:42 | 52.71060 | 10.87113 | 28447 ft | 399 kts | 345° |
| 2026-05-04 14:42 | 52.73797 | 10.86511 | 27988 ft | 394 kts | 345° |
| 2026-05-04 14:43 | 52.76496 | 10.85918 | 27555 ft | 390 kts | 345° |
| 2026-05-04 14:43 | 52.79173 | 10.85324 | 27089 ft | 386 kts | 345° |
| 2026-05-04 14:43 | 52.81824 | 10.84733 | 26638 ft | 382 kts | 345° |
| 2026-05-04 14:43 | 52.84416 | 10.84161 | 26185 ft | 380 kts | 345° |
| 2026-05-04 14:44 | 52.87028 | 10.83611 | 25716 ft | 378 kts | 345° |
| 2026-05-04 14:44 | 52.89666 | 10.83077 | 25215 ft | 376 kts | 346° |
| 2026-05-04 14:44 | 52.92260 | 10.82563 | 24721 ft | 375 kts | 346° |
| 2026-05-04 14:44 | 52.94815 | 10.82058 | 24218 ft | 374 kts | 346° |
| 2026-05-04 14:45 | 52.97436 | 10.81534 | 23691 ft | 374 kts | 346° |
| 2026-05-04 14:45 | 52.99988 | 10.81016 | 23112 ft | 374 kts | 346° |
| 2026-05-04 14:45 | 53.02566 | 10.80488 | 22603 ft | 372 kts | 346° |
| 2026-05-04 14:45 | 53.05130 | 10.79963 | 22089 ft | 370 kts | 347° |
| 2026-05-04 14:46 | 53.07684 | 10.79442 | 21580 ft | 369 kts | 347° |
| 2026-05-04 14:46 | 53.10229 | 10.78914 | 21079 ft | 368 kts | 347° |
| 2026-05-04 14:46 | 53.12765 | 10.78387 | 20583 ft | 367 kts | 347° |
| 2026-05-04 14:46 | 53.15294 | 10.77864 | 20082 ft | 366 kts | 347° |
| 2026-05-04 14:47 | 53.17823 | 10.77346 | 19596 ft | 365 kts | 347° |
| 2026-05-04 14:47 | 53.20346 | 10.76825 | 19089 ft | 365 kts | 348° |
| 2026-05-04 14:47 | 53.22862 | 10.76305 | 18600 ft | 365 kts | 348° |
| 2026-05-04 14:47 | 53.25381 | 10.75784 | 18094 ft | 364 kts | 348° |
| 2026-05-04 14:48 | 53.27881 | 10.75276 | 17672 ft | 360 kts | 348° |
| 2026-05-04 14:48 | 53.30364 | 10.74773 | 17243 ft | 356 kts | 348° |
| 2026-05-04 14:48 | 53.32826 | 10.74276 | 16728 ft | 355 kts | 348° |
| 2026-05-04 14:48 | 53.35265 | 10.73771 | 16251 ft | 352 kts | 348° |
| 2026-05-04 14:49 | 53.37668 | 10.73270 | 15738 ft | 342 kts | 348° |
| 2026-05-04 14:49 | 53.39988 | 10.72788 | 15272 ft | 329 kts | 348° |
| 2026-05-04 14:49 | 53.42243 | 10.72318 | 14852 ft | 326 kts | 348° |
| 2026-05-04 14:49 | 53.44465 | 10.71846 | 14427 ft | 326 kts | 348° |
| 2026-05-04 14:50 | 53.46719 | 10.71367 | 14004 ft | 327 kts | 348° |
| 2026-05-04 14:50 | 53.48976 | 10.70888 | 13548 ft | 327 kts | 349° |
| 2026-05-04 14:50 | 53.51231 | 10.70412 | 13102 ft | 326 kts | 349° |
| 2026-05-04 14:50 | 53.53479 | 10.69940 | 12668 ft | 325 kts | 349° |
| 2026-05-04 14:51 | 53.55716 | 10.69470 | 12226 ft | 324 kts | 349° |
| 2026-05-04 14:51 | 53.57926 | 10.68894 | 11780 ft | 314 kts | 339° |
| 2026-05-04 14:51 | 53.59774 | 10.67263 | 11361 ft | 291 kts | 315° |
| 2026-05-04 14:51 | 53.60988 | 10.64721 | 10972 ft | 271 kts | 293° |
| 2026-05-04 14:52 | 53.61506 | 10.61716 | 10742 ft | 272 kts | 273° |
| 2026-05-04 14:52 | 53.61322 | 10.58552 | 10515 ft | 273 kts | 252° |
| 2026-05-04 14:52 | 53.60531 | 10.55629 | 10273 ft | 275 kts | 243° |
| 2026-05-04 14:52 | 53.59655 | 10.52772 | 10032 ft | 273 kts | 243° |
| 2026-05-04 14:53 | 53.58791 | 10.49951 | 9833 ft | 267 kts | 243° |
| 2026-05-04 14:53 | 53.57968 | 10.47226 | 9694 ft | 256 kts | 246° |
| 2026-05-04 14:53 | 53.57596 | 10.44429 | 9559 ft | 246 kts | 270° |
| 2026-05-04 14:53 | 53.58006 | 10.41695 | 9364 ft | 242 kts | 296° |
| 2026-05-04 14:54 | 53.59109 | 10.39543 | 9250 ft | 245 kts | 316° |
| 2026-05-04 14:54 | 53.60407 | 10.37736 | 9098 ft | 245 kts | 316° |
| 2026-05-04 14:54 | 53.61721 | 10.35908 | 8927 ft | 244 kts | 316° |
| 2026-05-04 14:54 | 53.63030 | 10.34084 | 8764 ft | 244 kts | 316° |
| 2026-05-04 14:55 | 53.64333 | 10.32268 | 8597 ft | 243 kts | 317° |
| 2026-05-04 14:55 | 53.65806 | 10.30935 | 8431 ft | 249 kts | 344° |
| 2026-05-04 14:55 | 53.67540 | 10.31085 | 8258 ft | 257 kts | 17° |
| 2026-05-04 14:55 | 53.68983 | 10.32808 | 8082 ft | 263 kts | 47° |
| 2026-05-04 14:56 | 53.70163 | 10.35167 | 7901 ft | 263 kts | 49° |
| 2026-05-04 14:56 | 53.71330 | 10.37550 | 7720 ft | 263 kts | 49° |
| 2026-05-04 14:56 | 53.72487 | 10.39920 | 7554 ft | 261 kts | 49° |
| 2026-05-04 14:56 | 53.73643 | 10.42286 | 7375 ft | 261 kts | 49° |
| 2026-05-04 14:57 | 53.74808 | 10.44663 | 6908 ft | 262 kts | 49° |
| 2026-05-04 14:57 | 53.75962 | 10.47011 | 6427 ft | 258 kts | 49° |
| 2026-05-04 14:57 | 53.77099 | 10.49334 | 5911 ft | 255 kts | 49° |
| 2026-05-04 14:57 | 53.78327 | 10.51446 | 5393 ft | 248 kts | 31° |
| 2026-05-04 14:58 | 53.79875 | 10.52564 | 4909 ft | 238 kts | 6° |
| 2026-05-04 14:58 | 53.81487 | 10.52519 | 4394 ft | 229 kts | 342° |
| 2026-05-04 14:58 | 53.82914 | 10.51459 | 3886 ft | 222 kts | 326° |
| 2026-05-04 14:58 | 53.83797 | 10.50604 | 3634 ft | 218 kts | 327° |
| 2026-05-04 14:59 | 53.85104 | 10.48259 | 3202 ft | 207 kts | 291° |
| 2026-05-04 14:59 | 53.85339 | 10.45889 | 3008 ft | 206 kts | 265° |
| 2026-05-04 14:59 | 53.83991 | 10.41656 | 2998 ft | 210 kts | 233° |
| 2026-05-04 15:00 | 53.83063 | 10.39745 | 3009 ft | 210 kts | 233° |
| 2026-05-04 15:00 | 53.82136 | 10.37838 | 2998 ft | 210 kts | 234° |
| 2026-05-04 15:00 | 53.81207 | 10.35925 | 3005 ft | 209 kts | 233° |
| 2026-05-04 15:01 | 53.79488 | 10.32396 | 3015 ft | 177 kts | 233° |
| 2026-05-04 15:01 | 53.78725 | 10.30828 | 3008 ft | 170 kts | 233° |
| 2026-05-04 15:01 | 53.77979 | 10.29295 | 2998 ft | 167 kts | 233° |
| 2026-05-04 15:01 | 53.77246 | 10.27791 | 3002 ft | 165 kts | 233° |
| 2026-05-04 15:02 | 53.76511 | 10.26284 | 3000 ft | 168 kts | 233° |
| 2026-05-04 15:02 | 53.75770 | 10.24766 | 2998 ft | 166 kts | 233° |
| 2026-05-04 15:02 | 53.75033 | 10.23258 | 2994 ft | 166 kts | 233° |
| 2026-05-04 15:02 | 53.74296 | 10.21750 | 3000 ft | 167 kts | 233° |
| 2026-05-04 15:03 | 53.73806 | 10.20747 | 3004 ft | 167 kts | 233° |
| 2026-05-04 15:03 | 53.72822 | 10.18736 | 2874 ft | 168 kts | 232° |
| 2026-05-04 15:03 | 53.72080 | 10.17222 | 2683 ft | 166 kts | 233° |
| 2026-05-04 15:03 | 53.71345 | 10.15722 | 2472 ft | 165 kts | 233° |
| 2026-05-04 15:04 | 53.70609 | 10.14221 | 2250 ft | 166 kts | 234° |
| 2026-05-04 15:04 | 53.70118 | 10.13219 | 2102 ft | 167 kts | 234° |
| 2026-05-04 15:04 | 53.69377 | 10.11709 | 1876 ft | 168 kts | 236° |
| 2026-05-04 15:04 | 53.68654 | 10.10242 | 1665 ft | 152 kts | 236° |
| 2026-05-04 15:05 | 53.68009 | 10.08931 | 1457 ft | 141 kts | 235° |
| 2026-05-04 15:05 | 53.67393 | 10.07677 | 1263 ft | 136 kts | 238° |
| 2026-05-04 15:05 | 53.66791 | 10.06450 | 1091 ft | 136 kts | 233° |
| 2026-05-04 15:05 | 53.66195 | 10.05239 | 898 ft | 134 kts | 237° |
| 2026-05-04 15:06 | 53.65596 | 10.04020 | 707 ft | 136 kts | 233° |
| 2026-05-04 15:06 | 53.64989 | 10.02797 | 540 ft | 136 kts | 237° |
| 2026-05-04 15:06 | 53.64377 | 10.01575 | 338 ft | 138 kts | 234° |
| 2026-05-04 15:07 | 53.63187 | 9.99155 | 49 ft | 124 kts | 235° |
| 2026-05-04 15:07 | 53.62742 | 9.98216 | 43 ft | 78 kts | 230° |
| 2026-05-04 15:07 | 53.62514 | 9.97769 | 41 ft | 21 kts | 207° |
| 2026-05-04 15:07 | 53.62461 | 9.97800 | 41 ft | 5 kts | 131° |
| 2026-05-04 15:08 | 53.62446 | 9.97829 | 43 ft | 6 kts | 131° |
| 2026-05-04 15:08 | 53.62426 | 9.97885 | 45 ft | 4 kts | 105° |
| 2026-05-04 15:08 | 53.62425 | 9.97904 | 46 ft | 0 kts | 90° |
| 2026-05-04 15:08 | 53.62428 | 9.97937 | 47 ft | 5 kts | 81° |
| 2026-05-04 15:09 | 53.62434 | 9.97980 | 47 ft | 3 kts | 75° |
| 2026-05-04 15:09 | 53.62441 | 9.98017 | 45 ft | 3 kts | 71° |
| 2026-05-04 15:09 | 53.62463 | 9.98092 | 47 ft | 12 kts | 58° |
| 2026-05-04 15:10 | 53.62583 | 9.98339 | 47 ft | 15 kts | 50° |